YSSYYWLM

Guest
Details From YSSY - Sydney Intl
To YWLM - Williamtown
Flight Number -
Tags Generated
Created
Modified
Stats Distance 77 nm / 142 km
Max Altitude 0 ft / 0 m
Waypoints 2
Social Downloads 3
Likes 0
Share VATSIM

Download

Looking for another format? Having issues loading an existing format? Contact us
Advertisement - Login to hide

Notes

Generated

Route

YSSY YWLM

ID Type Via Altitude Latitude Longitude Leg Dist Tot Dist Heading (true) Name
O YSSY APT - 0 ft / 0 m -33.94962˚ 151.18832˚ - 0 nm - -
O YWLM APT - 0 ft / 0 m -32.78877˚ 151.82487˚ 76 nm 76 nm 25° / 24° -

Altitude Profile

Advertisement - Login to hide

YSSY

Details ICAO YSSY (SYD)
Name Sydney Intl
Region Australia
Timezone Australia/Sydney (UTC+11.0)
Stats Elevation 21 ft / 6 m (AMSL)
Location -33.949273° 151.181347°
Runways 3
Magnetic Variation 12.599° E

METAR

YSSY 161830Z 18012KT 8000 VCSH FEW004 SCT008 BKN017 22/22 Q1014 RETS FM1830 16015KT 9999 -SHRA SCT006 BKN011

Decode

TAF

TAF YSSY 161640Z 1618/1724 18015KT 9999 -SHRA FEW006 BKN013 FM162300 15012KT 9999 BKN018 FM171200 06008KT 9999 BKN015 FM172200 03010KT 9999 SCT020

Decode

Departure Runways

ID Width Length Bearing (true) Bearing (mag) Surface Threshold Offset Overrun Length
07 148 ft / 45 m 8,285 ft / 2,525 m 74.13° 61.53° Asphalt 0 ft / 0 m 0 ft / 0 m
16L 148 ft / 45 m 8,018 ft / 2,444 m 167.81° 155.21° Asphalt 758 ft / 231 m 0 ft / 0 m
16R 148 ft / 45 m 13,033 ft / 3,973 m 167.86° 155.26° Asphalt 279 ft / 85 m 0 ft / 0 m
25 148 ft / 45 m 8,285 ft / 2,525 m 254.12° 241.52° Asphalt 324 ft / 99 m 0 ft / 0 m
34L 148 ft / 45 m 13,033 ft / 3,973 m 347.85° 335.25° Asphalt 0 ft / 0 m 0 ft / 0 m
34R 148 ft / 45 m 8,018 ft / 2,444 m 347.81° 335.21° Asphalt 125 ft / 38 m 0 ft / 0 m

YWLM

Details ICAO YWLM (NTL)
Name Williamtown
Region Australia
Timezone Australia/Sydney (UTC+11.0)
Stats Elevation 31 ft / 9 m (AMSL)
Location -32.795878° 151.834796°
Runways 1
Magnetic Variation 12.387° E

METAR

YWLM 161830Z AUTO 25003KT 9999 // SCT020 20/19 Q1013

Decode

TAF

TAF AMD TAF AMD YWLM 161720Z 1618/1718 23005KT 9999 -SHRA SCT010 BECMG 1620/1622 18010KT 9999 -SHRA BKN010 BECMG 1623/1701 13015KT 9999 FEW020 SCT040 BECMG 1708/1710 07010KT 9999 SCT015 INTER 1618/1622 9999 BKN015

Decode

Destination Runways

ID Width Length Bearing (true) Bearing (mag) Surface Threshold Offset Overrun Length
12 148 ft / 45 m 8,001 ft / 2,439 m 130.44° 118.05° Asphalt 0 ft / 0 m 1,000 ft / 305 m
30 148 ft / 45 m 8,001 ft / 2,439 m 310.43° 298.04° Asphalt 0 ft / 0 m 1,000 ft / 305 m

Approach Navaids

Runway Type Ident Frequency Range Bearing (true) Bearing (mag) Slope Elevation
12 Localiser IWM 110.50 MHz 18 nm / 33 km 130.68° 118.30° - 31 ft / 9 m (AMSL)
12 Glidescope IWM 110.50 MHz 10 nm / 19 km 130.44° 118.05° 3.00° 31 ft / 9 m (AMSL)

Popular Alternatives